Time;durP1;ratioP1;P1;durP2;ratioP2;P2;SDS_P1;SDS_P2;PMS_P1;PMS_P2;Temp;Humidity;BMP_temperature;BMP_pressure;BME280_temperature;BME280_humidity;BME280_pressure;Samples;Min_cycle;Max_cycle;Signal;HPM_P1;HPM_P2
2022/05/13 00:00:17;;;;;;;5.03;2.40;;;15.00;94.50;;;;;;5076798;28;20463;-46
2022/05/13 00:02:44;;;;;;;3.60;2.40;;;15.00;94.70;;;;;;5076592;28;20435;-49
2022/05/13 00:05:13;;;;;;;2.27;2.00;;;15.00;95.00;;;;;;5076617;28;20435;-46
2022/05/13 00:07:39;;;;;;;5.50;2.10;;;15.00;95.30;;;;;;5076522;28;20467;-42
2022/05/13 00:10:07;;;;;;;3.87;1.80;;;14.90;95.50;;;;;;5076514;28;20424;-44
2022/05/13 00:12:36;;;;;;;2.30;1.97;;;14.90;95.60;;;;;;5075688;28;20462;-47
2022/05/13 00:15:05;;;;;;;2.90;2.33;;;14.90;95.90;;;;;;5043774;28;20461;-49
2022/05/13 00:17:32;;;;;;;2.40;2.17;;;14.90;96.00;;;;;;5037267;28;20443;-48
2022/05/13 00:20:04;;;;;;;2.50;2.20;;;14.80;96.30;;;;;;5036952;28;20475;-46
2022/05/13 00:22:33;;;;;;;4.40;2.27;;;14.80;96.90;;;;;;5036768;28;20436;-48
2022/05/13 00:24:59;;;;;;;2.30;2.03;;;14.80;96.90;;;;;;5036089;28;20457;-54
2022/05/13 00:27:26;;;;;;;4.27;2.47;;;14.70;97.20;;;;;;5036767;28;20480;-48
2022/05/13 00:29:53;;;;;;;4.33;2.53;;;14.80;97.40;;;;;;5038510;28;20429;-45
2022/05/13 00:32:23;;;;;;;4.20;2.10;;;14.80;97.80;;;;;;5040605;28;20445;-49
2022/05/13 00:34:50;;;;;;;3.00;2.10;;;14.70;98.10;;;;;;5040476;28;20957;-47
2022/05/13 00:37:21;;;;;;;3.37;2.53;;;14.60;98.40;;;;;;5040358;28;20448;-50
2022/05/13 00:39:50;;;;;;;2.80;2.10;;;14.70;98.70;;;;;;5040580;28;20483;-45
2022/05/13 00:42:19;;;;;;;4.67;2.33;;;14.60;99.00;;;;;;5039816;28;20453;-51
2022/05/13 00:44:48;;;;;;;2.20;1.90;;;14.60;99.40;;;;;;5039713;28;20429;-45
2022/05/13 00:47:15;;;;;;;3.40;2.40;;;14.50;99.60;;;;;;5040058;28;20504;-49
2022/05/13 00:49:44;;;;;;;5.90;2.63;;;14.50;99.90;;;;;;5039344;28;20456;-47
2022/05/13 00:52:13;;;;;;;4.40;2.33;;;14.50;99.90;;;;;;5039826;28;20455;-47
2022/05/13 00:54:41;;;;;;;4.53;2.53;;;14.50;99.90;;;;;;5040046;28;20447;-48
2022/05/13 00:57:13;;;;;;;2.60;2.10;;;14.40;99.90;;;;;;5040108;28;20472;-45
2022/05/13 00:59:46;;;;;;;4.00;2.40;;;14.40;99.90;;;;;;5039904;28;20453;-47
2022/05/13 01:02:16;;;;;;;2.90;2.40;;;14.30;99.90;;;;;;5039373;28;20456;-45
2022/05/13 01:04:45;;;;;;;5.50;2.50;;;14.30;99.90;;;;;;5039715;28;20481;-43
2022/05/13 01:07:21;;;;;;;2.83;2.63;;;14.20;99.90;;;;;;5039412;28;20467;-49
2022/05/13 01:09:52;;;;;;;4.13;2.47;;;14.20;99.90;;;;;;5039688;28;20456;-46
2022/05/13 01:12:24;;;;;;;6.13;2.77;;;14.20;99.90;;;;;;5038907;28;20445;-50
2022/05/13 01:14:59;;;;;;;2.63;2.43;;;14.20;99.90;;;;;;5039393;28;20457;-47
2022/05/13 01:20:17;;;;;;;3.03;2.23;;;14.20;99.90;;;;;;5039515;28;20483;-50
2022/05/13 01:22:48;;;;;;;5.07;2.70;;;14.20;99.90;;;;;;5039345;28;20417;-46
2022/05/13 01:25:18;;;;;;;4.47;2.57;;;14.20;99.90;;;;;;5039255;28;20460;-49
2022/05/13 01:27:47;;;;;;;7.30;3.70;;;14.10;99.90;;;;;;5039211;28;20453;-52
2022/05/13 01:30:16;;;;;;;2.53;2.27;;;14.10;99.90;;;;;;5039102;28;20467;-52
2022/05/13 01:32:43;;;;;;;4.10;2.53;;;14.10;99.90;;;;;;5039358;28;20453;-48
2022/05/13 01:35:11;;;;;;;2.63;2.07;;;14.10;99.90;;;;;;5039360;28;20464;-44
2022/05/13 01:37:41;;;;;;;6.63;2.50;;;14.10;99.90;;;;;;5039476;28;20425;-41
2022/05/13 01:40:11;;;;;;;4.13;2.80;;;14.00;99.90;;;;;;5039159;28;20484;-44
2022/05/13 01:42:38;;;;;;;3.17;2.60;;;14.00;99.90;;;;;;5039273;28;20437;-43
2022/05/13 01:45:07;;;;;;;2.50;2.30;;;14.00;99.90;;;;;;5039262;28;20495;-48
2022/05/13 01:47:33;;;;;;;3.80;2.87;;;13.90;99.90;;;;;;5039083;28;20485;-52
2022/05/13 01:50:00;;;;;;;3.27;2.70;;;13.90;99.90;;;;;;5039363;28;20453;-48
2022/05/13 01:52:27;;;;;;;5.20;2.53;;;13.90;99.90;;;;;;5039176;28;20441;-43
2022/05/13 01:54:54;;;;;;;4.90;2.80;;;13.90;99.90;;;;;;5039274;28;20471;-44
2022/05/13 01:57:22;;;;;;;4.30;2.50;;;13.90;99.90;;;;;;5038778;28;20457;-45
2022/05/13 01:59:48;;;;;;;4.10;2.80;;;13.80;99.90;;;;;;5038606;28;20467;-44
2022/05/13 02:02:22;;;;;;;4.53;3.00;;;13.80;99.90;;;;;;5038633;28;20441;-45
2022/05/13 02:04:50;;;;;;;2.83;2.60;;;13.80;99.90;;;;;;5038524;28;20495;-45
2022/05/13 02:07:16;;;;;;;5.27;2.90;;;13.80;99.90;;;;;;5038527;28;20441;-44
2022/05/13 02:09:43;;;;;;;3.13;2.40;;;13.80;99.90;;;;;;5038622;28;20477;-39
2022/05/13 02:12:11;;;;;;;5.10;2.90;;;13.80;99.90;;;;;;5038719;28;20456;-45
2022/05/13 02:14:39;;;;;;;3.53;3.10;;;13.80;99.90;;;;;;5038488;28;20496;-43
2022/05/13 02:17:05;;;;;;;4.07;3.07;;;13.80;99.90;;;;;;5038610;28;20433;-55
2022/05/13 02:19:33;;;;;;;4.70;3.30;;;13.80;99.90;;;;;;5038456;28;20450;-48
2022/05/13 02:22:01;;;;;;;4.50;3.57;;;13.80;99.90;;;;;;5038361;28;20481;-54
2022/05/13 02:24:28;;;;;;;3.60;3.30;;;13.80;99.90;;;;;;5038562;28;20465;-56
2022/05/13 02:26:58;;;;;;;8.00;3.63;;;13.80;99.90;;;;;;5038260;28;20440;-51
2022/05/13 02:29:25;;;;;;;4.80;3.00;;;13.80;99.90;;;;;;5038022;28;20485;-42
2022/05/13 02:31:52;;;;;;;4.70;3.10;;;13.80;99.90;;;;;;5038422;28;20421;-47
2022/05/13 02:34:21;;;;;;;3.80;3.10;;;13.80;99.90;;;;;;5037976;28;20445;-46
2022/05/13 02:36:48;;;;;;;6.20;3.93;;;13.80;99.90;;;;;;5038186;28;20413;-43
2022/05/13 02:39:15;;;;;;;5.77;3.30;;;13.80;99.90;;;;;;5037736;28;20897;-47
2022/05/13 02:41:44;;;;;;;5.13;3.83;;;13.80;99.90;;;;;;5037888;28;20438;-46
2022/05/13 02:44:11;;;;;;;3.83;3.50;;;13.80;99.90;;;;;;5037465;28;20452;-47
2022/05/13 02:46:38;;;;;;;9.33;3.90;;;13.70;99.90;;;;;;5038082;28;20426;-46
2022/05/13 02:49:06;;;;;;;5.83;3.57;;;13.70;99.90;;;;;;5037659;28;20491;-52
2022/05/13 02:51:33;;;;;;;4.97;4.57;;;13.70;99.90;;;;;;5037285;28;20506;-51
2022/05/13 02:54:00;;;;;;;4.50;4.10;;;13.70;99.90;;;;;;5037647;28;20443;-48
2022/05/13 02:56:34;;;;;;;4.30;3.90;;;13.70;99.90;;;;;;5037617;28;20476;-47
2022/05/13 02:59:03;;;;;;;5.80;4.73;;;13.60;99.90;;;;;;5037576;28;20493;-45
2022/05/13 03:01:30;;;;;;;3.50;3.20;;;13.60;99.90;;;;;;5037538;28;20455;-41
2022/05/13 03:04:00;;;;;;;7.80;4.13;;;13.60;99.90;;;;;;5037684;28;21026;-45
2022/05/13 03:06:28;;;;;;;8.10;3.83;;;13.60;99.90;;;;;;5037771;28;20430;-48
2022/05/13 03:08:57;;;;;;;5.80;3.33;;;13.50;99.90;;;;;;5037667;28;20475;-47
2022/05/13 03:11:28;;;;;;;10.03;4.10;;;13.60;99.90;;;;;;5037687;28;20440;-45
2022/05/13 03:13:54;;;;;;;4.23;3.83;;;13.50;99.90;;;;;;5037396;28;20450;-48
2022/05/13 03:16:25;;;;;;;4.90;4.33;;;13.50;99.90;;;;;;5037030;28;20445;-50
2022/05/13 03:18:54;;;;;;;4.50;3.90;;;13.40;99.90;;;;;;5037478;28;20405;-48
2022/05/13 03:21:22;;;;;;;5.13;4.10;;;13.40;99.90;;;;;;5037138;28;20461;-47
2022/05/13 03:23:52;;;;;;;4.30;3.40;;;13.40;99.90;;;;;;5036723;28;20441;-51
2022/05/13 03:26:21;;;;;;;4.30;3.90;;;13.40;99.90;;;;;;5037102;28;20500;-51
2022/05/13 03:28:48;;;;;;;5.20;4.00;;;13.40;99.90;;;;;;5036928;28;20461;-46
2022/05/13 03:31:16;;;;;;;4.93;4.20;;;13.30;99.90;;;;;;5036792;28;20521;-47
2022/05/13 03:33:43;;;;;;;6.23;4.00;;;13.30;99.90;;;;;;5036798;28;20475;-45
2022/05/13 03:36:15;;;;;;;7.40;4.23;;;13.40;99.90;;;;;;5036263;28;20457;-51
2022/05/13 03:38:45;;;;;;;4.67;4.17;;;13.40;99.90;;;;;;5036927;28;20417;-46
2022/05/13 03:41:15;;;;;;;4.70;4.20;;;13.40;99.90;;;;;;5036442;28;20476;-47
2022/05/13 03:43:43;;;;;;;6.57;5.37;;;13.50;99.90;;;;;;5037102;28;20438;-44
2022/05/13 03:46:13;;;;;;;5.00;4.50;;;13.50;99.90;;;;;;5036421;28;20500;-50
2022/05/13 03:48:39;;;;;;;5.00;4.10;;;13.50;99.90;;;;;;5036235;28;20548;-53
2022/05/13 03:51:06;;;;;;;6.83;4.20;;;13.50;99.90;;;;;;5036422;28;20488;-47
2022/05/13 03:53:33;;;;;;;6.07;4.07;;;13.50;99.90;;;;;;5036960;28;20509;-47
2022/05/13 03:56:00;;;;;;;5.07;4.57;;;13.50;99.90;;;;;;5036322;28;20480;-34
2022/05/13 03:58:31;;;;;;;5.77;4.70;;;13.50;99.90;;;;;;5036315;28;20461;-45
2022/05/13 04:00:58;;;;;;;8.80;4.80;;;13.50;99.90;;;;;;5036619;28;20449;-48
2022/05/13 04:03:27;;;;;;;6.50;4.70;;;13.50;99.90;;;;;;5036303;28;20465;-42
2022/05/13 04:08:57;;;;;;;6.40;4.77;;;13.50;99.90;;;;;;5037233;28;20501;-53
2022/05/13 04:11:24;;;;;;;5.60;5.10;;;13.50;99.90;;;;;;5036754;28;20507;-47
2022/05/13 04:16:36;;;;;;;8.77;4.43;;;13.50;99.90;;;;;;5036981;28;20449;-45
2022/05/13 04:19:04;;;;;;;5.10;4.70;;;13.50;99.90;;;;;;5036615;28;20413;-48
2022/05/13 04:21:33;;;;;;;5.53;5.00;;;13.50;99.90;;;;;;5036833;28;20456;-45
2022/05/13 04:24:02;;;;;;;9.10;4.70;;;13.50;99.90;;;;;;5036832;28;20421;-48
2022/05/13 04:26:29;;;;;;;5.77;5.17;;;13.50;99.90;;;;;;5036447;28;20503;-52
2022/05/13 04:28:57;;;;;;;6.40;4.80;;;13.60;99.90;;;;;;5036340;28;20536;-50
2022/05/13 04:31:31;;;;;;;5.23;4.60;;;13.60;99.90;;;;;;5036451;28;20460;-48
2022/05/13 04:33:58;;;;;;;4.80;4.10;;;13.60;99.90;;;;;;5036697;28;20424;-51
2022/05/13 04:36:27;;;;;;;12.37;5.70;;;13.60;99.90;;;;;;5036440;28;20465;-49
2022/05/13 04:38:57;;;;;;;9.43;5.93;;;13.60;99.90;;;;;;5036257;28;20468;-49
2022/05/13 04:44:14;;;;;;;6.73;5.20;;;13.70;99.90;;;;;;5036292;28;20425;-48
2022/05/13 04:46:44;;;;;;;5.40;4.90;;;13.70;99.90;;;;;;5036256;28;20464;-46
2022/05/13 04:49:11;;;;;;;7.07;5.80;;;13.70;99.90;;;;;;5036212;28;20480;-46
2022/05/13 04:51:38;;;;;;;9.20;5.90;;;13.70;99.90;;;;;;5036499;28;20469;-48
2022/05/13 04:54:06;;;;;;;6.93;4.63;;;13.70;99.90;;;;;;5036722;28;20483;-48
2022/05/13 04:56:34;;;;;;;5.00;4.60;;;13.70;99.90;;;;;;5036412;28;20479;-49
2022/05/13 04:59:01;;;;;;;7.97;5.60;;;13.80;99.90;;;;;;5036424;28;20453;-49
2022/05/13 05:01:30;;;;;;;7.30;5.17;;;13.80;99.90;;;;;;5023718;28;20473;-51
2022/05/13 05:03:57;;;;;;;11.13;5.50;;;13.80;99.90;;;;;;5014933;28;20515;-51
2022/05/13 05:06:23;;;;;;;5.07;4.50;;;13.90;99.90;;;;;;5014428;28;20473;-51
2022/05/13 05:08:53;;;;;;;6.20;5.60;;;13.90;99.90;;;;;;5014559;28;20941;-48
2022/05/13 05:11:19;;;;;;;5.90;5.37;;;14.00;99.90;;;;;;5014766;28;20568;-48
2022/05/13 05:13:49;;;;;;;6.23;5.30;;;14.10;99.90;;;;;;5014613;28;20445;-51
2022/05/13 05:16:17;;;;;;;6.77;5.77;;;14.20;99.90;;;;;;5016629;28;20488;-50
2022/05/13 05:18:45;;;;;;;6.13;5.53;;;14.20;99.90;;;;;;5018155;28;20495;-50
2022/05/13 05:21:12;;;;;;;5.90;5.10;;;14.30;99.90;;;;;;5017907;28;20437;-50
2022/05/13 05:23:42;;;;;;;8.90;5.20;;;14.30;99.90;;;;;;5018041;28;20433;-47
2022/05/13 05:26:08;;;;;;;16.73;6.10;;;14.30;99.90;;;;;;5017720;28;20444;-50
2022/05/13 05:28:37;;;;;;;8.50;6.50;;;14.40;99.90;;;;;;5017993;28;20543;-50
2022/05/13 05:31:05;;;;;;;7.07;5.70;;;14.60;99.90;;;;;;5017600;28;20453;-53
2022/05/13 05:33:31;;;;;;;13.83;7.40;;;14.60;99.90;;;;;;5017856;28;20765;-53
2022/05/13 05:35:59;;;;;;;6.53;5.67;;;14.70;99.90;;;;;;5017561;28;20437;-52
2022/05/13 05:38:26;;;;;;;9.13;5.70;;;14.80;99.90;;;;;;5017891;28;20527;-47
2022/05/13 05:40:55;;;;;;;5.27;4.67;;;14.90;99.90;;;;;;5018067;28;20444;-53
2022/05/13 05:43:22;;;;;;;6.00;5.30;;;15.00;99.90;;;;;;5018277;28;20536;-47
2022/05/13 05:45:49;;;;;;;5.67;5.07;;;15.10;99.90;;;;;;5017676;28;20890;-49
2022/05/13 05:48:22;;;;;;;6.07;4.37;;;15.20;99.90;;;;;;5017214;28;20472;-49
2022/05/13 05:50:49;;;;;;;8.40;5.00;;;15.20;99.90;;;;;;5017540;28;20429;-49
2022/05/13 05:57:13;;;;;;;12.50;5.70;;;15.30;99.90;;;;;;5017519;28;20455;-52
2022/05/13 05:58:51;;;;;;;9.83;5.10;;;15.50;99.90;;;;;;5017278;28;20423;-54
2022/05/13 06:01:18;;;;;;;6.07;5.47;;;15.60;99.90;;;;;;5017075;28;20746;-49
2022/05/13 06:03:45;;;;;;;7.10;5.50;;;15.60;99.90;;;;;;5017357;28;20925;-49
2022/05/13 06:06:13;;;;;;;7.33;4.60;;;15.80;99.90;;;;;;5017226;28;20472;-52
2022/05/13 06:08:41;;;;;;;6.87;4.40;;;15.90;99.90;;;;;;5016873;28;20914;-47
2022/05/13 06:11:09;;;;;;;6.07;5.20;;;16.00;99.90;;;;;;5016886;28;20512;-43
2022/05/13 06:13:36;;;;;;;7.57;5.80;;;16.20;99.90;;;;;;5017111;28;20488;-48
2022/05/13 06:16:03;;;;;;;6.37;5.20;;;16.20;99.90;;;;;;5016735;28;20461;-50
2022/05/13 06:18:29;;;;;;;7.20;5.27;;;16.40;99.90;;;;;;5016942;28;20580;-47
2022/05/13 06:20:56;;;;;;;11.40;4.80;;;16.50;99.90;;;;;;5016770;28;20451;-51
2022/05/13 06:23:23;;;;;;;7.83;5.30;;;16.60;99.90;;;;;;5016630;28;20457;-50
2022/05/13 06:25:51;;;;;;;9.13;5.63;;;16.70;99.90;;;;;;5016890;28;20535;-48
2022/05/13 06:28:18;;;;;;;8.37;5.97;;;16.80;99.90;;;;;;5016804;28;20484;-49
2022/05/13 06:30:45;;;;;;;6.17;4.93;;;17.00;99.90;;;;;;5016872;28;20524;-48
2022/05/13 06:33:12;;;;;;;6.97;4.57;;;17.10;99.90;;;;;;5016977;28;20683;-53
2022/05/13 06:35:39;;;;;;;6.33;4.47;;;17.20;99.90;;;;;;5016714;28;20455;-49
2022/05/13 06:38:08;;;;;;;14.10;5.17;;;17.30;99.90;;;;;;5016275;28;20863;-53
2022/05/13 06:40:34;;;;;;;5.27;4.77;;;17.50;99.90;;;;;;5016296;28;20929;-51
2022/05/13 06:43:03;;;;;;;14.63;6.20;;;17.60;99.90;;;;;;5016390;28;20480;-52
2022/05/13 06:45:30;;;;;;;7.40;5.50;;;17.60;99.90;;;;;;5016298;28;20465;-51
2022/05/13 06:47:57;;;;;;;7.47;4.77;;;17.70;99.90;;;;;;5016324;28;20505;-54
2022/05/13 06:50:25;;;;;;;5.77;5.00;;;17.80;99.90;;;;;;5016169;28;20814;-50
2022/05/13 06:52:51;;;;;;;8.00;5.10;;;17.90;99.90;;;;;;5016212;28;20473;-51
2022/05/13 06:55:18;;;;;;;5.67;5.17;;;18.00;99.90;;;;;;5016116;28;21078;-51
2022/05/13 06:57:45;;;;;;;24.30;10.17;;;18.10;99.90;;;;;;5016182;28;20552;-52
2022/05/13 07:00:14;;;;;;;6.70;5.70;;;18.20;99.90;;;;;;5016173;28;20475;-51
2022/05/13 07:02:41;;;;;;;11.60;6.17;;;18.30;99.90;;;;;;5016049;28;20453;-47
2022/05/13 07:05:10;;;;;;;8.40;4.90;;;18.30;99.90;;;;;;5016119;28;20437;-43
2022/05/13 07:07:37;;;;;;;5.87;4.30;;;18.50;99.90;;;;;;5015920;28;20460;-50
2022/05/13 07:10:04;;;;;;;6.37;4.93;;;18.60;99.90;;;;;;5015960;28;20481;-50
2022/05/13 07:12:31;;;;;;;6.40;5.40;;;18.80;99.90;;;;;;5015648;28;20459;-50
2022/05/13 07:14:58;;;;;;;12.73;5.63;;;18.80;99.90;;;;;;5015908;28;20758;-47
2022/05/13 07:17:26;;;;;;;8.97;5.10;;;19.00;99.90;;;;;;5015962;28;20495;-49
2022/05/13 07:19:53;;;;;;;9.50;5.13;;;19.50;99.90;;;;;;5016074;28;20471;-48
2022/05/13 07:22:20;;;;;;;6.43;5.00;;;20.30;99.90;;;;;;5016864;28;20463;-50
2022/05/13 07:24:47;;;;;;;6.87;4.53;;;21.20;98.50;;;;;;5015863;28;20472;-50
2022/05/13 07:27:14;;;;;;;5.20;4.70;;;21.80;95.30;;;;;;5015613;28;20996;-54
2022/05/13 07:29:41;;;;;;;6.83;5.90;;;22.00;93.40;;;;;;5015619;28;20555;-52
2022/05/13 07:32:09;;;;;;;7.90;5.30;;;21.80;92.00;;;;;;5015782;28;20452;-49
2022/05/13 07:34:37;;;;;;;6.47;3.93;;;21.50;92.30;;;;;;5015623;28;20468;-50
2022/05/13 07:37:04;;;;;;;8.53;4.60;;;21.40;93.50;;;;;;5015357;28;20988;-49
2022/05/13 07:42:16;;;;;;;11.80;5.03;;;21.00;93.00;;;;;;5015506;28;20796;-51
2022/05/13 07:44:43;;;;;;;5.73;5.20;;;20.40;93.30;;;;;;5015410;28;20813;-49
2022/05/13 07:47:10;;;;;;;8.27;6.07;;;19.90;95.10;;;;;;5015196;28;20937;-55
2022/05/13 07:49:42;;;;;;;6.90;5.67;;;19.70;95.30;;;;;;5015026;28;20496;-43
2022/05/13 07:52:09;;;;;;;9.47;5.60;;;19.60;95.40;;;;;;5015249;28;20511;-44
2022/05/13 07:54:36;;;;;;;6.30;5.53;;;19.40;96.10;;;;;;5015350;28;20492;-55
2022/05/13 07:57:04;;;;;;;6.67;5.97;;;19.40;96.70;;;;;;5015399;28;20453;-52
2022/05/13 07:59:32;;;;;;;8.53;5.30;;;19.20;96.20;;;;;;5014873;28;20813;-50
2022/05/13 08:01:59;;;;;;;10.43;5.50;;;19.10;97.10;;;;;;5015153;28;20460;-48
2022/05/13 08:04:26;;;;;;;7.10;5.27;;;19.10;97.30;;;;;;5015212;28;20472;-52
2022/05/13 08:06:54;;;;;;;10.77;6.23;;;19.10;97.40;;;;;;5015151;28;20460;-49
2022/05/13 08:09:21;;;;;;;6.73;5.50;;;19.10;97.30;;;;;;5015150;28;20472;-50
2022/05/13 08:11:48;;;;;;;6.53;5.93;;;19.10;97.70;;;;;;5015220;28;20445;-51
2022/05/13 08:14:14;;;;;;;6.33;5.47;;;19.10;97.60;;;;;;5014568;28;20511;-52
2022/05/13 08:16:41;;;;;;;8.67;5.83;;;18.90;98.00;;;;;;5015004;28;20417;-55
2022/05/13 08:19:08;;;;;;;8.40;5.97;;;18.70;97.60;;;;;;5015118;28;20472;-47
2022/05/13 08:21:35;;;;;;;8.83;5.90;;;18.40;98.60;;;;;;5014976;28;20455;-47
2022/05/13 08:24:03;;;;;;;6.27;5.27;;;18.20;98.90;;;;;;5015017;28;20790;-51
2022/05/13 08:26:30;;;;;;;7.13;6.23;;;18.20;99.40;;;;;;5014972;28;20499;-50
2022/05/13 08:28:56;;;;;;;6.27;5.67;;;18.20;99.30;;;;;;5014772;28;20445;-50
2022/05/13 08:31:23;;;;;;;8.03;5.80;;;18.10;99.70;;;;;;5014624;28;20992;-52
2022/05/13 08:33:50;;;;;;;7.50;6.03;;;18.10;99.60;;;;;;5014691;28;20441;-49
2022/05/13 08:36:17;;;;;;;7.10;5.67;;;18.10;99.70;;;;;;5014902;28;20464;-50
2022/05/13 08:38:45;;;;;;;6.83;6.20;;;18.00;99.90;;;;;;5014551;28;20547;-47
2022/05/13 08:41:28;;;;;;;8.83;6.67;;;18.00;99.90;;;;;;5014392;28;20445;-51
2022/05/13 08:43:58;;;;;;;7.43;6.30;;;18.00;99.90;;;;;;5012049;28;20514;-47
2022/05/13 08:46:36;;;;;;;7.67;6.70;;;17.90;99.90;;;;;;5002172;28;20450;-35
2022/05/13 08:49:17;;;;;;;8.50;6.50;;;17.80;99.90;;;;;;5036086;28;20413;-42
2022/05/13 08:52:01;;;;;;;5.53;5.03;;;17.70;99.90;;;;;;5038638;28;20437;-39
2022/05/13 08:54:34;;;;;;;8.27;6.73;;;17.80;99.90;;;;;;5039105;28;20436;-38
2022/05/13 08:57:10;;;;;;;6.07;5.47;;;17.90;99.90;;;;;;5039191;28;20429;-43
2022/05/13 08:59:44;;;;;;;8.13;6.37;;;17.90;99.90;;;;;;5039105;28;20445;-36
2022/05/13 09:02:18;;;;;;;11.77;6.80;;;17.70;99.90;;;;;;5038475;28;20437;-41
2022/05/13 09:04:48;;;;;;;6.60;6.00;;;17.70;99.90;;;;;;5039327;28;20433;-38
2022/05/13 09:07:19;;;;;;;9.13;6.10;;;17.90;99.90;;;;;;5039567;28;20417;-39
2022/05/13 09:09:50;;;;;;;8.57;5.83;;;18.00;99.90;;;;;;5038705;28;20473;-39
2022/05/13 09:12:26;;;;;;;7.20;6.13;;;18.20;99.90;;;;;;5039297;28;20453;-45
2022/05/13 09:15:00;;;;;;;6.10;5.50;;;18.40;99.90;;;;;;5039472;28;20635;-46
2022/05/13 09:17:35;;;;;;;11.13;5.67;;;19.00;99.90;;;;;;5039512;28;20463;-40
2022/05/13 09:20:08;;;;;;;8.97;5.53;;;19.30;99.80;;;;;;5039016;28;20456;-42
2022/05/13 09:22:39;;;;;;;8.80;5.07;;;19.30;99.60;;;;;;5039156;28;20421;-47
2022/05/13 09:25:08;;;;;;;7.57;4.10;;;19.60;99.00;;;;;;5038045;28;20472;-38
2022/05/13 09:27:47;;;;;;;7.60;4.43;;;19.70;97.10;;;;;;5038279;28;20425;-39
2022/05/13 09:30:19;;;;;;;8.23;3.60;;;19.70;95.30;;;;;;5038508;28;20457;-46
2022/05/13 09:32:46;;;;;;;12.43;3.70;;;20.20;94.50;;;;;;5039286;28;20425;-43
2022/05/13 09:35:20;;;;;;;7.30;3.27;;;20.40;93.00;;;;;;5039475;28;20463;-42
2022/05/13 09:37:47;;;;;;;5.77;2.90;;;21.10;93.00;;;;;;5038672;28;20418;-39
2022/05/13 09:40:23;;;;;;;5.50;2.67;;;22.20;89.00;;;;;;5038207;28;20437;-41
2022/05/13 09:42:53;;;;;;;4.57;3.90;;;22.50;87.30;;;;;;5037754;28;20423;-41
2022/05/13 09:45:25;;;;;;;5.10;2.93;;;22.60;84.00;;;;;;5038065;28;20448;-44
2022/05/13 09:48:17;;;;;;;5.73;3.00;;;22.70;83.00;;;;;;5037674;28;20433;-43
2022/05/13 09:50:46;;;;;;;9.20;2.80;;;22.40;81.00;;;;;;5024711;28;20472;-37
2022/05/13 09:53:40;;;;;;;4.50;2.93;;;21.80;79.20;;;;;;5038386;28;20953;-40
2022/05/13 09:56:13;;;;;;;6.40;3.07;;;21.30;81.50;;;;;;5014017;28;20429;-40
2022/05/13 09:58:54;;;;;;;3.47;2.80;;;21.00;83.10;;;;;;5038064;28;20447;-38
2022/05/13 10:01:23;;;;;;;10.23;3.43;;;20.80;84.20;;;;;;5037112;28;20445;-42
2022/05/13 10:04:08;;;;;;;3.20;2.90;;;20.60;85.10;;;;;;5037099;28;20426;-43
2022/05/13 10:06:36;;;;;;;3.93;2.67;;;20.50;85.80;;;;;;5037327;28;20532;-40
2022/05/13 10:14:45;;;;;;;6.87;3.17;;;20.90;88.00;;;;;;5037601;28;20480;-42
2022/05/13 10:17:16;;;;;;;4.90;2.83;;;21.00;85.50;;;;;;5037657;28;20468;-41
2022/05/13 10:19:47;;;;;;;9.97;3.27;;;21.00;86.30;;;;;;5036596;28;20437;-39
2022/05/13 10:22:21;;;;;;;7.40;3.27;;;21.10;84.70;;;;;;5036990;28;20484;-42
2022/05/13 10:24:55;;;;;;;4.33;3.30;;;21.00;84.40;;;;;;5036346;28;20417;-41
2022/05/13 10:27:29;;;;;;;7.27;3.63;;;20.80;84.60;;;;;;5036682;28;20473;-44
2022/05/13 10:30:04;;;;;;;4.47;3.43;;;20.60;85.10;;;;;;5036682;28;20441;-42
2022/05/13 10:32:44;;;;;;;6.20;3.60;;;20.40;86.00;;;;;;5036937;28;20464;-38
2022/05/13 10:35:16;;;;;;;5.57;3.70;;;20.30;86.80;;;;;;5037931;28;20480;-41
2022/05/13 10:37:58;;;;;;;10.37;4.10;;;20.30;87.60;;;;;;5037751;28;20475;-44
2022/05/13 10:40:30;;;;;;;4.53;3.47;;;19.80;88.20;;;;;;5037188;28;20433;-43
2022/05/13 10:43:04;;;;;;;4.27;3.20;;;19.70;88.00;;;;;;5037393;28;20465;-44
2022/05/13 10:45:33;;;;;;;7.63;3.60;;;19.80;87.80;;;;;;5037043;28;20426;-33
2022/05/13 10:48:16;;;;;;;6.47;3.50;;;20.00;87.90;;;;;;5036892;28;20469;-38
2022/05/13 10:50:50;;;;;;;6.33;3.40;;;19.80;88.60;;;;;;5037723;28;20460;-41
2022/05/13 10:53:25;;;;;;;5.87;3.40;;;19.60;90.10;;;;;;5037483;28;20553;-45
2022/05/13 10:56:00;;;;;;;7.30;3.30;;;19.50;90.40;;;;;;5037498;28;20441;-39
2022/05/13 10:58:36;;;;;;;5.70;2.83;;;19.40;90.80;;;;;;5037909;28;20492;-40
2022/05/13 11:01:17;;;;;;;7.00;3.27;;;19.40;90.50;;;;;;5037652;28;20436;-40
2022/05/13 11:03:58;;;;;;;6.50;4.00;;;19.70;90.20;;;;;;5037432;28;20457;-45
2022/05/13 11:06:46;;;;;;;4.03;2.33;;;19.90;85.00;;;;;;5037553;28;20426;-37
2022/05/13 11:09:22;;;;;;;3.93;3.10;;;19.80;84.40;;;;;;5036868;28;20469;-35
2022/05/13 11:11:49;;;;;;;5.57;2.90;;;20.00;84.70;;;;;;5036793;28;20465;-40
2022/05/13 11:14:43;;;;;;;6.33;2.70;;;20.20;85.30;;;;;;5036040;28;20452;-41
2022/05/13 11:17:26;;;;;;;2.43;2.20;;;20.30;85.20;;;;;;5035524;28;20445;-47
2022/05/13 11:20:03;;;;;;;6.30;2.20;;;20.20;83.20;;;;;;5037056;28;20445;-43
2022/05/13 11:22:37;;;;;;;6.87;2.40;;;20.00;82.70;;;;;;5037270;28;20425;-41
2022/05/13 11:28:10;;;;;;;2.03;1.50;;;19.90;83.60;;;;;;5036881;28;20420;-42
2022/05/13 11:30:43;;;;;;;3.10;2.20;;;19.70;83.20;;;;;;5036043;28;20472;-41
2022/05/13 11:33:25;;;;;;;4.00;2.50;;;19.50;81.40;;;;;;5036881;28;20429;-38
2022/05/13 11:36:10;;;;;;;4.03;2.00;;;19.30;80.20;;;;;;5036347;28;20505;-46
2022/05/13 11:38:55;;;;;;;3.93;2.73;;;19.20;80.10;;;;;;5036528;28;20443;-40
2022/05/13 11:41:24;;;;;;;2.63;2.00;;;19.50;79.40;;;;;;5036389;28;20406;-45
2022/05/13 11:43:54;;;;;;;4.03;2.43;;;19.80;78.30;;;;;;5036578;28;20441;-42
2022/05/13 11:46:48;;;;;;;7.87;3.37;;;19.90;77.60;;;;;;5035457;28;20468;-38
2022/05/13 11:49:23;;;;;;;7.03;3.20;;;19.70;76.20;;;;;;5026646;28;20445;-37
2022/05/13 11:51:56;;;;;;;6.40;2.27;;;19.70;75.30;;;;;;5034833;28;20471;-41
2022/05/13 11:54:27;;;;;;;5.30;2.20;;;19.40;75.80;;;;;;5032806;28;20430;-44
2022/05/13 11:57:24;;;;;;;3.07;2.77;;;19.30;76.90;;;;;;5036472;28;20460;-38
2022/05/13 11:59:52;;;;;;;2.50;2.30;;;19.10;78.70;;;;;;5035934;28;20465;-37
2022/05/13 12:02:34;;;;;;;6.43;3.57;;;19.00;80.30;;;;;;5035869;28;20433;-39
2022/05/13 12:05:12;;;;;;;3.00;2.50;;;19.10;80.90;;;;;;5035714;28;20448;-39
2022/05/13 12:07:52;;;;;;;3.13;2.57;;;19.30;81.20;;;;;;5033402;28;20439;-47
2022/05/13 12:10:27;;;;;;;3.37;2.60;;;19.50;80.80;;;;;;5035091;28;20483;-41
2022/05/13 12:13:05;;;;;;;5.03;2.47;;;19.80;80.50;;;;;;5035832;28;20429;-33
2022/05/13 12:15:45;;;;;;;4.43;3.43;;;20.10;80.10;;;;;;5036193;28;20487;-39
2022/05/13 12:18:21;;;;;;;8.47;3.10;;;20.30;78.70;;;;;;5035243;28;20476;-38
2022/05/13 12:20:56;;;;;;;5.10;3.43;;;20.40;77.80;;;;;;5036120;28;20483;-42
2022/05/13 12:23:28;;;;;;;4.00;2.60;;;20.30;78.30;;;;;;5036686;28;20421;-43
2022/05/13 12:25:58;;;;;;;5.80;2.77;;;20.40;75.40;;;;;;5039367;28;20537;-42
2022/05/13 12:28:42;;;;;;;5.00;2.70;;;20.20;73.00;;;;;;5039661;28;20445;-43
2022/05/13 12:31:34;;;;;;;5.20;2.47;;;20.10;73.20;;;;;;5039346;28;20446;-51
2022/05/13 12:39:56;;;;;;;3.30;3.00;;;20.30;73.60;;;;;;5039972;28;20481;-58
2022/05/13 12:42:41;;;;;;;3.23;2.00;;;20.10;71.80;;;;;;5039441;28;20496;-57
2022/05/13 12:45:11;;;;;;;5.43;2.17;;;20.00;72.80;;;;;;5039776;28;20721;-56
2022/05/13 12:47:59;;;;;;;6.90;3.43;;;19.80;73.30;;;;;;5039496;28;20677;-51
2022/05/13 12:50:39;;;;;;;2.53;2.10;;;19.60;74.30;;;;;;5039376;28;20423;-55
2022/05/13 12:53:39;;;;;;;2.43;2.10;;;19.40;75.20;;;;;;5040715;28;20456;-55
2022/05/13 12:56:29;;;;;;;3.00;2.10;;;19.30;75.60;;;;;;5040388;28;20447;-56
2022/05/13 12:59:05;;;;;;;2.93;2.20;;;19.10;75.20;;;;;;5040620;28;20436;-57
2022/05/13 13:01:34;;;;;;;9.07;2.70;;;19.00;74.90;;;;;;5040176;28;20443;-53
2022/05/13 13:04:01;;;;;;;4.47;2.67;;;18.80;75.80;;;;;;5039413;28;20414;-58
2022/05/13 13:06:41;;;;;;;4.17;2.60;;;18.60;76.40;;;;;;5038788;28;20488;-50
2022/05/13 13:09:19;;;;;;;5.03;2.67;;;18.50;76.40;;;;;;5038612;28;20440;-55
2022/05/13 13:11:53;;;;;;;4.73;2.20;;;18.40;77.20;;;;;;5038707;28;20490;-54
2022/05/13 13:14:37;;;;;;;2.43;2.00;;;18.30;77.90;;;;;;5038532;28;20453;-56
2022/05/13 13:17:08;;;;;;;5.00;1.93;;;18.20;78.70;;;;;;5038270;28;20460;-55
2022/05/13 13:19:35;;;;;;;3.23;2.33;;;18.20;79.50;;;;;;5038376;28;20477;-58
2022/05/13 13:22:05;;;;;;;4.13;2.20;;;18.10;79.70;;;;;;5038679;28;20446;-37
2022/05/13 13:24:37;;;;;;;5.33;2.43;;;18.00;80.50;;;;;;5039287;28;20187;-45
2022/05/13 13:27:06;;;;;;;3.97;2.10;;;18.10;82.50;;;;;;5037858;28;20441;-39
2022/05/13 13:29:36;;;;;;;4.97;2.50;;;18.10;81.40;;;;;;5037519;28;20489;-42
2022/05/13 13:32:07;;;;;;;2.90;2.20;;;18.10;81.80;;;;;;5037793;28;20480;-41
2022/05/13 13:34:39;;;;;;;13.40;2.77;;;18.10;82.20;;;;;;5037461;28;20468;-36